createdAt,value
2019-05-10T00:01:44.733Z,45.55
2019-05-10T00:04:32.053Z,45.64
2019-05-10T00:07:19.065Z,45.75
2019-05-10T00:09:47.696Z,45.90
2019-05-10T00:12:43.601Z,46.04
2019-05-10T00:15:19.994Z,45.85
2019-05-10T00:17:51.623Z,45.81
2019-05-10T00:20:23.760Z,45.84
2019-05-10T00:22:54.053Z,45.86
2019-05-10T00:25:23.716Z,45.88
2019-05-10T00:27:53.609Z,45.87
2019-05-10T00:30:24.867Z,45.89
2019-05-10T00:32:54.618Z,45.93
2019-05-10T00:35:26.548Z,45.97
2019-05-10T00:37:56.185Z,45.98
2019-05-10T00:40:25.930Z,46.02
2019-05-10T00:42:55.674Z,46.05
2019-05-10T00:45:25.498Z,46.07
2019-05-10T00:47:55.751Z,46.11
2019-05-10T00:50:26.100Z,46.13
2019-05-10T00:59:03.183Z,46.30
2019-05-10T01:01:33.605Z,46.38
2019-05-10T01:04:04.984Z,46.33
2019-05-10T01:06:34.600Z,46.37
2019-05-10T01:09:06.073Z,46.49
2019-05-10T01:11:35.771Z,46.50
2019-05-10T01:14:05.609Z,46.44
2019-05-10T01:16:35.576Z,46.55
2019-05-10T01:19:08.749Z,46.53
2019-05-10T01:21:40.079Z,46.55
2019-05-10T01:24:13.451Z,46.52
2019-05-10T01:26:44.683Z,46.46
2019-05-10T01:29:17.274Z,46.56
2019-05-10T01:31:51.966Z,46.62
2019-05-10T01:34:23.195Z,46.68
2019-05-10T01:36:53.499Z,46.71
2019-05-10T01:39:24.548Z,46.76
2019-05-10T01:41:54.413Z,46.76
2019-05-10T01:44:24.193Z,46.69
2019-05-10T01:46:54.048Z,46.83
2019-05-10T01:49:23.830Z,46.90
2019-05-10T01:51:54.460Z,46.96
2019-05-10T01:54:25.963Z,47.00
2019-05-10T01:57:06.851Z,47.14
2019-05-10T01:59:38.118Z,47.20
2019-05-10T02:02:10.674Z,47.26
2019-05-10T02:04:42.686Z,47.26
2019-05-10T02:07:14.934Z,47.28
2019-05-10T02:09:45.458Z,47.35
2019-05-10T02:12:16.869Z,47.42
2019-05-10T02:14:47.156Z,47.46
2019-05-10T02:17:17.333Z,47.40
2019-05-10T02:19:47.141Z,47.45
2019-05-10T02:22:22.747Z,47.53
2019-05-10T02:24:53.774Z,47.66
2019-05-10T02:27:29.289Z,47.65
2019-05-10T02:32:53.124Z,47.70
2019-05-10T02:35:23.048Z,47.72
2019-05-10T02:38:04.262Z,47.74
2019-05-10T02:40:34.257Z,47.79
2019-05-10T02:43:03.886Z,47.81
2019-05-10T02:45:34.405Z,47.88
2019-05-10T02:48:04.574Z,47.88
2019-05-10T02:50:35.721Z,47.88
2019-05-10T02:53:05.789Z,47.88
2019-05-10T02:55:39.673Z,47.89
2019-05-10T02:58:16.615Z,47.88
2019-05-10T03:04:30.978Z,47.95
2019-05-10T03:06:42.953Z,48.04
2019-05-10T03:09:13.601Z,48.09
2019-05-10T03:11:50.266Z,48.12
2019-05-10T03:14:20.195Z,48.08
2019-05-10T03:16:53.151Z,48.04
2019-05-10T03:19:23.369Z,48.10
2019-05-10T03:22:03.855Z,48.17
2019-05-10T03:24:33.371Z,48.19
2019-05-10T03:27:04.250Z,48.25
2019-05-10T03:29:35.616Z,48.22
2019-05-10T03:32:10.558Z,48.21
2019-05-10T03:34:40.705Z,48.19
2019-05-10T03:37:35.628Z,48.18
2019-05-10T03:40:07.788Z,48.17
2019-05-10T03:42:39.406Z,48.17
2019-05-10T03:45:10.185Z,48.19
2019-05-10T03:47:41.918Z,48.28
2019-05-10T03:50:11.639Z,48.31
2019-05-10T03:52:46.044Z,48.39
2019-05-10T03:55:15.692Z,48.39
2019-05-10T03:57:46.240Z,48.44
2019-05-10T04:00:17.554Z,48.47
2019-05-10T04:02:47.167Z,48.57
2019-05-10T04:05:17.656Z,48.57
2019-05-10T04:07:47.056Z,48.63
2019-05-10T04:10:20.678Z,48.69
2019-05-10T04:12:48.879Z,48.76
2019-05-10T04:15:18.680Z,48.82
2019-05-10T04:17:50.328Z,48.88
2019-05-10T04:20:19.386Z,48.95
2019-05-10T04:22:48.827Z,48.92
2019-05-10T04:25:18.769Z,48.92
2019-05-10T04:27:51.543Z,48.98
2019-05-10T04:30:21.195Z,49.00
2019-05-10T04:32:50.925Z,49.02
2019-05-10T04:35:20.775Z,49.05
2019-05-10T04:37:51.689Z,49.13
2019-05-10T04:40:22.050Z,49.13
2019-05-10T04:42:51.570Z,49.11
2019-05-10T04:45:24.607Z,49.14
2019-05-10T04:47:55.540Z,49.14
2019-05-10T04:50:27.414Z,49.22
2019-05-10T04:52:57.990Z,49.27
2019-05-10T04:55:48.402Z,49.26
2019-05-10T04:58:20.528Z,49.32
2019-05-10T05:00:51.635Z,49.33
2019-05-10T05:03:22.021Z,49.36
2019-05-10T05:05:51.623Z,49.37
2019-05-10T05:08:22.652Z,49.36
2019-05-10T05:10:52.258Z,49.37
2019-05-10T05:13:22.059Z,49.46
2019-05-10T05:15:51.863Z,49.52
2019-05-10T05:18:22.625Z,49.50
2019-05-10T05:21:04.594Z,49.55
2019-05-10T05:23:35.609Z,49.51
2019-05-10T05:26:05.926Z,49.49
2019-05-10T05:28:35.776Z,49.54
2019-05-10T05:31:08.009Z,49.57
2019-05-10T05:33:37.676Z,49.59
2019-05-10T05:36:09.605Z,49.56
2019-05-10T05:38:47.251Z,49.58
2019-05-10T05:43:54.603Z,49.49
2019-05-10T05:49:48.664Z,49.48
2019-05-10T05:52:39.177Z,49.48
2019-05-10T06:34:21.443Z,48.80
2019-05-10T06:36:51.665Z,48.57
2019-05-10T06:39:24.398Z,48.47
2019-05-10T06:42:01.295Z,48.25
2019-05-10T06:44:33.160Z,48.14
2019-05-10T06:47:08.349Z,48.02
2019-05-10T06:49:41.667Z,47.74
2019-05-10T06:52:07.332Z,47.65
2019-05-10T06:54:37.520Z,47.55
2019-05-10T06:57:11.321Z,47.37
2019-05-10T06:59:38.323Z,47.19
2019-05-10T07:02:07.903Z,47.03
2019-05-10T07:04:40.943Z,46.90
2019-05-10T07:07:10.229Z,46.63
2019-05-10T07:10:01.811Z,46.63
2019-05-10T07:12:15.138Z,46.52
2019-05-10T07:14:45.914Z,46.39
2019-05-10T07:17:13.115Z,46.32
2019-05-10T07:19:53.160Z,46.22
2019-05-10T07:22:14.079Z,46.16
2019-05-10T07:24:43.656Z,46.06
2019-05-10T07:27:13.143Z,45.85
2019-05-10T07:29:46.165Z,45.60
2019-05-10T07:32:16.412Z,45.44
2019-05-10T07:34:48.752Z,45.31
2019-05-10T07:37:17.056Z,45.26
2019-05-10T07:39:46.541Z,45.11
2019-05-10T07:42:16.081Z,45.07
2019-05-10T07:44:46.833Z,44.96
2019-05-10T07:47:16.875Z,44.61
2019-05-10T07:49:46.302Z,44.48
2019-05-10T07:52:15.798Z,44.47
2019-05-10T07:54:47.725Z,44.32
2019-05-10T07:57:18.742Z,44.26
2019-05-10T07:59:50.855Z,44.13
2019-05-10T08:02:19.423Z,44.09
2019-05-10T08:04:53.335Z,44.09
2019-05-10T08:07:20.262Z,44.09
2019-05-10T08:09:49.675Z,44.00
2019-05-10T08:12:19.596Z,43.93
2019-05-10T08:14:53.373Z,43.94
2019-05-10T08:17:20.507Z,43.97
2019-05-10T08:19:50.212Z,44.05
2019-05-10T08:22:19.842Z,44.07
2019-05-10T08:24:54.464Z,44.05
2019-05-10T08:27:22.982Z,44.13
2019-05-10T08:30:15.758Z,44.17
2019-05-10T08:32:25.508Z,44.18
2019-05-10T08:34:55.912Z,44.15
2019-05-10T08:37:30.967Z,44.13
2019-05-10T08:39:56.563Z,44.06
2019-05-10T08:42:40.834Z,43.83
2019-05-10T08:45:03.801Z,43.52
2019-05-10T08:47:28.137Z,43.32
2019-05-10T08:50:11.767Z,43.14
2019-05-10T08:52:31.678Z,43.05
2019-05-10T08:55:02.502Z,43.04
2019-05-10T08:57:36.846Z,43.08
2019-05-10T09:00:08.556Z,43.20
2019-05-10T09:02:33.274Z,43.24
2019-05-10T09:05:02.780Z,43.16
2019-05-10T09:07:34.970Z,43.11
2019-05-10T09:10:03.231Z,43.13
2019-05-10T09:12:33.002Z,43.12
2019-05-10T09:15:06.350Z,43.03
2019-05-10T09:17:33.561Z,43.07
2019-05-10T09:20:02.930Z,43.23
2019-05-10T09:22:38.238Z,43.34
2019-05-10T09:25:03.335Z,43.40
2019-05-10T09:27:33.447Z,43.45
2019-05-10T09:30:03.106Z,43.36
2019-05-10T09:32:33.375Z,43.49
2019-05-10T09:35:07.587Z,43.58
2019-05-10T09:37:33.916Z,43.79
2019-05-10T09:40:09.305Z,43.88
2019-05-10T09:42:39.923Z,43.90
2019-05-10T09:45:09.205Z,43.69
2019-05-10T09:47:36.892Z,43.55
2019-05-10T09:50:06.747Z,43.38
2019-05-10T09:52:36.067Z,43.15
2019-05-10T09:55:12.386Z,42.86
2019-05-10T09:57:37.969Z,42.51
2019-05-10T10:00:08.418Z,42.36
2019-05-10T10:02:40.633Z,42.06
2019-05-10T10:05:09.415Z,42.02
2019-05-10T10:07:38.744Z,42.02
2019-05-10T10:10:12.606Z,41.89
2019-05-10T10:12:40.180Z,41.90
2019-05-10T10:15:13.648Z,42.02
2019-05-10T10:17:42.564Z,41.95
2019-05-10T10:20:11.772Z,41.75
2019-05-10T10:22:43.552Z,41.54
2019-05-10T10:25:13.866Z,41.28
2019-05-10T10:27:43.287Z,40.39
2019-05-10T10:30:17.805Z,40.35
2019-05-10T10:32:44.612Z,40.44
2019-05-10T10:35:20.979Z,40.22
2019-05-10T10:37:47.568Z,39.96
2019-05-10T10:40:18.309Z,40.10
2019-05-10T10:42:47.694Z,40.26
2019-05-10T10:45:17.369Z,40.09
2019-05-10T10:47:49.921Z,39.11
2019-05-10T10:50:19.324Z,38.87
2019-05-10T10:52:48.689Z,38.46
2019-05-10T10:55:18.804Z,38.42
2019-05-10T10:57:50.540Z,38.88
2019-05-10T11:00:32.012Z,39.79
2019-05-10T11:03:02.061Z,40.63
2019-05-10T11:05:31.378Z,41.30
2019-05-10T11:08:01.139Z,41.69
2019-05-10T11:10:31.645Z,41.94
2019-05-10T11:13:11.912Z,42.42
2019-05-10T11:15:36.454Z,42.62
2019-05-10T11:18:06.635Z,42.64
2019-05-10T11:20:36.059Z,42.86
2019-05-10T11:23:05.438Z,42.93
2019-05-10T11:25:34.929Z,42.34
2019-05-10T11:28:09.134Z,41.84
2019-05-10T11:30:37.807Z,42.21
2019-05-10T11:33:22.889Z,41.87
2019-05-10T11:35:38.418Z,42.04
2019-05-10T11:38:12.872Z,42.39
2019-05-10T11:40:41.703Z,42.48
2019-05-10T11:43:10.098Z,42.27
2019-05-10T11:45:43.921Z,43.12
2019-05-10T11:48:10.942Z,42.52
2019-05-10T11:50:42.868Z,42.83
2019-05-10T11:53:17.030Z,42.84
2019-05-10T11:55:43.874Z,42.77
2019-05-10T11:58:13.497Z,42.10
2019-05-10T12:00:42.936Z,42.03
2019-05-10T12:03:18.344Z,41.38
2019-05-10T12:05:43.524Z,41.49
2019-05-10T12:08:13.377Z,40.82
2019-05-10T12:10:52.651Z,41.10
2019-05-10T12:15:47.491Z,42.27
2019-05-10T12:18:25.118Z,41.77
2019-05-10T12:20:56.611Z,41.93
2019-05-10T12:23:29.716Z,42.43
2019-05-10T12:26:06.529Z,41.70
2019-05-10T12:26:20.049Z,41.91
2019-05-10T12:28:28.555Z,42.36
2019-05-10T12:30:54.447Z,40.94
2019-05-10T12:33:27.337Z,41.23
2019-05-10T12:35:55.202Z,40.78
2019-05-10T12:38:29.798Z,40.41
2019-05-10T12:40:55.713Z,39.26
2019-05-10T12:43:25.158Z,39.47
2019-05-10T12:45:54.513Z,39.61
2019-05-10T12:48:23.877Z,39.02
2019-05-10T12:50:57.950Z,39.09
2019-05-10T12:53:24.844Z,39.28
2019-05-10T12:55:54.211Z,39.44
2019-05-10T12:58:23.615Z,39.57
2019-05-10T13:00:54.540Z,39.56
2019-05-10T13:03:31.689Z,39.46
2019-05-10T13:05:55.365Z,39.46
2019-05-10T13:08:25.121Z,40.63
2019-05-10T13:10:54.656Z,40.66
2019-05-10T13:13:29.529Z,40.04
2019-05-10T13:15:55.127Z,38.99
2019-05-10T13:18:49.151Z,37.85
2019-05-10T13:20:55.792Z,37.79
2019-05-10T13:23:25.189Z,36.80
2019-05-10T13:25:54.579Z,35.84
2019-05-10T13:28:23.939Z,34.04
2019-05-10T13:30:53.343Z,34.20
2019-05-10T13:33:29.065Z,33.21
2019-05-10T13:35:56.391Z,31.76
2019-05-10T13:38:25.082Z,31.22
2019-05-10T13:40:56.470Z,31.21
2019-05-10T13:43:28.160Z,31.92
2019-05-10T13:45:57.124Z,32.49
2019-05-10T13:48:27.062Z,32.71
2019-05-10T13:50:56.493Z,32.81
2019-05-10T13:53:26.044Z,32.07
2019-05-10T13:55:55.583Z,31.06
2019-05-10T13:58:25.049Z,30.48
2019-05-10T14:00:54.446Z,31.07
2019-05-10T14:03:23.931Z,31.79
2019-05-10T14:05:53.629Z,32.73
2019-05-10T14:08:23.129Z,33.66
2019-05-10T14:10:56.100Z,34.45
2019-05-10T14:13:23.935Z,34.33
2019-05-10T14:15:53.327Z,34.66
2019-05-10T14:18:22.817Z,32.79
2019-05-10T14:20:52.245Z,32.65
2019-05-10T14:23:21.649Z,33.36
2019-05-10T14:25:51.112Z,31.93
2019-05-10T14:28:21.546Z,31.98
2019-05-10T14:30:57.186Z,29.70
2019-05-10T14:33:22.132Z,28.60
2019-05-10T14:35:55.057Z,27.85
2019-05-10T14:38:23.089Z,29.18
2019-05-10T14:40:52.790Z,28.14
2019-05-10T14:43:22.149Z,26.97
2019-05-10T14:45:51.532Z,26.79
2019-05-10T14:48:27.742Z,27.68
2019-05-10T14:50:53.438Z,28.96
2019-05-10T14:53:25.789Z,29.90
2019-05-10T14:55:54.793Z,30.61
2019-05-10T14:58:24.161Z,30.94
2019-05-10T15:00:53.706Z,31.12
2019-05-10T15:03:23.142Z,32.05
2019-05-10T15:05:55.323Z,31.98
2019-05-10T15:08:23.710Z,33.88
2019-05-10T15:10:53.138Z,33.69
2019-05-10T15:13:25.920Z,33.06
2019-05-10T15:15:53.826Z,33.26
2019-05-10T15:18:23.338Z,33.72
2019-05-10T15:20:52.743Z,34.01
2019-05-10T15:23:22.072Z,33.00
2019-05-10T15:25:57.265Z,32.40
2019-05-10T15:28:22.631Z,32.43
2019-05-10T15:30:52.760Z,32.80
2019-05-10T15:33:25.264Z,33.58
2019-05-10T15:35:54.744Z,33.85
2019-05-10T15:38:24.110Z,33.15
2019-05-10T15:40:55.875Z,33.52
2019-05-10T15:43:25.370Z,33.81
2019-05-10T15:45:55.153Z,34.19
2019-05-10T15:48:24.625Z,34.45
2019-05-10T15:50:53.964Z,34.23
2019-05-10T15:53:25.449Z,32.71
2019-05-10T15:55:59.027Z,31.64
2019-05-10T15:58:30.751Z,30.53
2019-05-10T16:00:57.193Z,29.57
2019-05-10T16:03:26.797Z,29.28
2019-05-10T16:06:00.855Z,31.09
2019-05-10T16:08:30.228Z,32.21
2019-05-10T16:10:58.711Z,32.63
2019-05-10T16:13:28.172Z,32.67
2019-05-10T16:15:59.517Z,32.10
2019-05-10T16:18:33.437Z,31.63
2019-05-10T16:21:00.199Z,30.66
2019-05-10T16:23:29.570Z,30.70
2019-05-10T16:25:58.931Z,30.21
2019-05-10T16:28:28.368Z,29.63
2019-05-10T16:30:57.784Z,29.67
2019-05-10T16:33:27.222Z,28.84
2019-05-10T16:35:56.643Z,28.99
2019-05-10T16:38:26.008Z,29.02
2019-05-10T16:41:00.597Z,29.05
2019-05-10T16:43:26.628Z,28.95
2019-05-10T16:45:56.286Z,29.40
2019-05-10T16:48:28.234Z,30.23
2019-05-10T16:50:57.577Z,29.71
2019-05-10T16:53:27.250Z,28.37
2019-05-10T16:55:57.355Z,28.28
2019-05-10T16:58:26.950Z,28.58
2019-05-10T17:00:59.507Z,28.07
2019-05-10T17:03:28.985Z,28.01
2019-05-10T17:06:04.225Z,27.55
2019-05-10T17:08:30.829Z,26.99
2019-05-10T17:11:09.583Z,27.00
2019-05-10T17:13:36.459Z,26.39
2019-05-10T17:16:03.806Z,26.50
2019-05-10T17:18:33.289Z,26.92
2019-05-10T17:21:02.697Z,27.27
2019-05-10T17:23:32.106Z,27.76
2019-05-10T17:26:01.538Z,27.74
2019-05-10T17:28:35.266Z,28.43
2019-05-10T17:31:07.561Z,28.59
2019-05-10T17:33:36.662Z,28.94
2019-05-10T17:36:08.432Z,28.92
2019-05-10T17:38:35.853Z,28.83
2019-05-10T17:41:05.197Z,29.03
2019-05-10T17:43:34.646Z,29.42
2019-05-10T17:46:04.106Z,29.63
2019-05-10T17:48:33.504Z,29.71
2019-05-10T17:51:02.969Z,30.16
2019-05-10T17:53:32.391Z,30.28
2019-05-10T17:56:03.145Z,30.45
2019-05-10T17:58:33.951Z,30.86
2019-05-10T18:01:04.350Z,30.91
2019-05-10T18:03:33.798Z,31.03
2019-05-10T18:06:03.243Z,31.34
2019-05-10T18:08:32.742Z,31.07
2019-05-10T18:11:03.985Z,29.49
2019-05-10T18:13:35.567Z,28.90
2019-05-10T18:16:09.095Z,27.12
2019-05-10T18:18:45.880Z,26.05
2019-05-10T18:21:09.375Z,25.65
2019-05-10T18:23:38.748Z,24.57
2019-05-10T18:26:08.133Z,24.23
2019-05-10T18:28:37.527Z,24.47
2019-05-10T18:31:06.931Z,24.33
2019-05-10T18:33:37.218Z,23.97
2019-05-10T18:36:06.610Z,23.92
2019-05-10T18:38:38.971Z,24.11
2019-05-10T18:41:10.072Z,24.63
2019-05-10T18:43:40.824Z,24.53
2019-05-10T18:46:10.582Z,24.98
2019-05-10T18:48:39.958Z,26.32
2019-05-10T18:51:09.408Z,27.49
2019-05-10T18:53:38.864Z,28.85
2019-05-10T18:56:08.185Z,30.25
2019-05-10T18:58:37.847Z,31.29
2019-05-10T19:01:07.363Z,32.32
2019-05-10T19:03:37.019Z,33.29
2019-05-10T19:06:10.961Z,33.79
2019-05-10T19:08:43.845Z,34.15
2019-05-10T19:11:12.084Z,35.42
2019-05-10T19:13:47.859Z,35.79
2019-05-10T19:16:13.809Z,35.98
2019-05-10T19:18:43.447Z,35.39
2019-05-10T19:21:13.055Z,34.08
2019-05-10T19:23:42.601Z,34.38
2019-05-10T19:26:12.266Z,35.00
2019-05-10T19:28:41.828Z,35.83
2019-05-10T19:31:11.489Z,36.65
2019-05-10T19:33:41.275Z,37.56
2019-05-10T19:36:14.739Z,38.40
2019-05-10T19:39:06.983Z,39.26
2019-05-10T19:42:15.045Z,39.95
2019-05-10T19:44:46.829Z,40.54
2019-05-10T19:47:20.104Z,41.24
2019-05-10T19:49:52.056Z,41.86
2019-05-10T19:52:25.948Z,42.31
2019-05-10T19:54:58.666Z,42.50
2019-05-10T19:57:28.860Z,43.05
2019-05-10T20:00:01.493Z,43.20
2019-05-10T20:02:34.245Z,43.40
2019-05-10T20:05:04.431Z,43.36
2019-05-10T20:07:45.442Z,43.50
2019-05-10T20:10:07.811Z,43.58
2019-05-10T20:12:38.840Z,43.79
2019-05-10T20:15:08.672Z,43.66
2019-05-10T20:17:38.313Z,43.69
2019-05-10T20:20:08.331Z,43.63
2019-05-10T20:22:39.450Z,43.55
2019-05-10T20:25:09.434Z,43.55
2019-05-10T20:27:39.165Z,43.57
2019-05-10T20:30:10.855Z,43.57
2019-05-10T20:32:40.498Z,43.56
2019-05-10T20:35:10.133Z,43.60
2019-05-10T20:37:39.746Z,43.74
2019-05-10T20:40:09.422Z,43.81
2019-05-10T20:42:38.890Z,43.80
2019-05-10T20:45:08.913Z,43.87
2019-05-10T20:47:38.586Z,43.86
2019-05-10T20:50:08.326Z,43.91
2019-05-10T20:52:37.839Z,43.93
2019-05-10T20:55:09.323Z,44.08
2019-05-10T20:57:43.633Z,44.17
2019-05-10T21:03:47.876Z,44.21
2019-05-10T21:06:26.477Z,44.14
2019-05-10T21:09:18.227Z,44.24
2019-05-10T21:11:53.044Z,44.25
2019-05-10T21:14:50.173Z,44.29
2019-05-10T21:17:27.945Z,44.35
2019-05-10T21:19:57.459Z,44.44
2019-05-10T21:22:40.027Z,44.54
2019-05-10T21:25:17.229Z,44.65
2019-05-10T21:27:46.933Z,44.62
2019-05-10T21:30:17.126Z,44.72
2019-05-10T21:32:46.608Z,44.80
2019-05-10T21:35:16.261Z,44.83
2019-05-10T21:37:45.861Z,45.01
2019-05-10T21:40:15.866Z,45.15
2019-05-10T21:42:45.600Z,45.43
2019-05-10T21:45:15.860Z,45.49
2019-05-10T21:47:51.646Z,45.50
2019-05-10T21:50:16.701Z,45.63
2019-05-10T21:52:46.303Z,45.69
2019-05-10T21:55:16.921Z,45.94
2019-05-10T21:57:47.032Z,46.08
2019-05-10T22:00:19.297Z,46.23
2019-05-10T22:02:51.637Z,46.47
2019-05-10T22:05:21.755Z,46.74
2019-05-10T22:07:51.545Z,46.99
2019-05-10T22:10:21.339Z,47.24
2019-05-10T22:12:52.579Z,47.44
2019-05-10T22:15:22.332Z,47.66
2019-05-10T22:17:52.014Z,47.81
2019-05-10T22:20:22.157Z,47.88
2019-05-10T22:22:51.797Z,47.99
2019-05-10T22:25:21.486Z,48.09
2019-05-10T22:27:51.190Z,48.09
2019-05-10T22:30:20.678Z,48.23
2019-05-10T22:32:50.457Z,48.31
2019-05-10T22:35:20.098Z,48.47
2019-05-10T22:37:49.672Z,48.55
2019-05-10T22:40:19.305Z,48.66
2019-05-10T22:42:48.850Z,48.76
2019-05-10T22:45:18.479Z,48.81
2019-05-10T22:47:49.068Z,48.87
2019-05-10T22:50:18.713Z,48.93
2019-05-10T22:52:49.487Z,49.06
2019-05-10T22:55:19.570Z,49.14
2019-05-10T22:57:49.577Z,49.26
2019-05-10T23:00:19.479Z,49.40
2019-05-10T23:02:49.183Z,49.54
2019-05-10T23:05:19.789Z,49.58
2019-05-10T23:07:50.269Z,49.67
2019-05-10T23:10:20.555Z,49.70
2019-05-10T23:12:52.261Z,49.73
2019-05-10T23:15:21.929Z,49.64
2019-05-10T23:17:52.196Z,49.65
2019-05-10T23:20:22.001Z,49.77
2019-05-10T23:22:53.005Z,49.85
2019-05-10T23:27:55.008Z,49.81
2019-05-10T23:30:24.506Z,49.75
2019-05-10T23:32:53.890Z,49.79
2019-05-10T23:35:23.422Z,49.92
2019-05-10T23:37:52.934Z,50.13
2019-05-10T23:40:22.415Z,50.30
2019-05-10T23:42:52.207Z,50.26
2019-05-10T23:45:21.778Z,50.41
2019-05-10T23:47:52.005Z,50.53
2019-05-10T23:50:21.684Z,50.48
2019-05-10T23:52:51.262Z,50.39
2019-05-10T23:55:20.738Z,50.48
2019-05-10T23:57:50.237Z,50.50
